Aérodrome :
LOGIN :

S'inscrire | Disclaimer

   EN    FR    IT 

 










Légende :    VFR   VFR Marginal   IFR   IFR Intensif   IFR Très Intensif
Visi : 
Plafond : 
>= 8 km
>= 3000ft
5 à 8 km
1000 à 3000 ft
1500m à 5 km
500 à 1000 ft
800 à 1500m
200 à 500 ft
< 800m
< 200 ft
Symboles :   Orages  Brouillard  Fortes neiges  Fortes précipitations  Vent > 20 kt
SIGMETs :   Divers  Orages  Givrage  Turbulence  Onde Orograph.  Cendres Volcan.







- Altitude de l'aérodrome : 72 ft
- Code IATA : UDE


EHVK - Volkel Airbase

DERNIER METAR :
  • 151125Z AUTO 20008KT 130V230 9999 OVC010 04/02 Q0994 GRN 20006KT 9999 SCT009 OVC012

METARs EXPIRÉS :
  • 151055Z AUTO 21008KT 170V240 9999 FEW009 OVC011 04/02 Q0994 GRN 20006KT 9999 SCT009 OVC012
  • 151044Z AUTO 21007KT 170V230 9999 FEW009 OVC010 04/02 Q0994 GRN 20006KT 9999 SCT009 OVC012
  • 151025Z AUTO 20007KT 170V230 9999 FEW009 BKN010 OVC012 04/03 Q0994 GRN 20006KT 9999 OVC008
  • 150955Z AUTO 21007KT 160V250 9999 FEW007 OVC010 04/03 Q0994 GRN 20006KT 9999 OVC008
  • 150925Z AUTO 20006KT 160V250 9999 SCT007 BKN008 OVC009 04/03 Q0993 GRN 20006KT 9999 OVC008
  • 150855Z AUTO 19006KT 160V230 9999 FEW007 BKN009 OVC010 03/02 Q0993 GRN 20006KT 9999 OVC008

TAF TAF EHVK
Valide du 15 à 10h jusqu'au 15 à 22h UTC


150907Z 1510/1522 22008KT 9999 BKN008
PROB30
TEMPO 1510/1516 4000 -SHRAGS FEW005 BKN007 SCT014CB BKN020
BECMG 1515/1518 VRB02KT 4000 BR BKN015
Pas de NOTAMs connus pour ce terrain.



MET'MAP, la Météo Aéronautique d'un coup d'oeil ! - Copyright ORBIFLY Décembre 2007 - Disclaimer

ORBIFLY MET'MAP TEAM :

Programmation & Développement : Alexandra Zaïnal
Conception & Développement : Baudouin d'Aumeries
Co-Programmation & Développement : Marc-Olivier Méhu
Soutien technique & logistique : Manuel Goepfert

Contact : metmap@orbifly.com




SOURCES & CREDITS :

   NOAA